Terminal Aerodrome Forecast
Issued by NWS

Home | Current Version | Previous Version | Text Only | Print | Product List | Glossary On
Versions: 1 2 3 4 5 6 7 8 9 10 11 12 13 14 15 16
817
FTUS45 KTFX 261739
TAFGTF
TAF
KGTF 261739Z 2618/2718 04007KT 2SM -SN BR SCT015 OVC025
      TEMPO 2618/2622 3/4SM -SN BR SCT005 OVC015
     FM262200 02008KT 5SM BR SCT005 OVC015
     FM270300 03008KT 1SM -SN BR SCT008 OVC025
     FM271100 04008KT P6SM VCSH SCT012 OVC025 PROB30 2711/2717 3/4SM
      -SN BR OVC012=

USA.gov is the U.S. government's official web portal to all federal, state and local government web resources and services.